sensor_id;sensor_type;location;lat;lon;timestamp;P1;durP1;ratioP1;P2;durP2;ratioP2
5841;SDS011;2947;52.276;9.946;2023-08-06T00:00:05;12.00;;;7.28;;
5841;SDS011;2947;52.276;9.946;2023-08-06T00:02:31;12.75;;;7.43;;
5841;SDS011;2947;52.276;9.946;2023-08-06T00:04:57;13.23;;;8.43;;
5841;SDS011;2947;52.276;9.946;2023-08-06T00:07:22;11.25;;;7.93;;
5841;SDS011;2947;52.276;9.946;2023-08-06T00:09:48;12.25;;;7.55;;
5841;SDS011;2947;52.276;9.946;2023-08-06T00:12:14;12.35;;;7.50;;
5841;SDS011;2947;52.276;9.946;2023-08-06T00:14:40;15.20;;;7.30;;
5841;SDS011;2947;52.276;9.946;2023-08-06T00:17:05;10.38;;;7.15;;
5841;SDS011;2947;52.276;9.946;2023-08-06T00:19:31;12.65;;;7.38;;
5841;SDS011;2947;52.276;9.946;2023-08-06T00:21:57;12.18;;;7.85;;
5841;SDS011;2947;52.276;9.946;2023-08-06T00:24:23;13.90;;;7.82;;
5841;SDS011;2947;52.276;9.946;2023-08-06T00:26:49;10.60;;;7.18;;
5841;SDS011;2947;52.276;9.946;2023-08-06T00:29:14;12.82;;;7.53;;
5841;SDS011;2947;52.276;9.946;2023-08-06T00:31:40;13.80;;;6.30;;
5841;SDS011;2947;52.276;9.946;2023-08-06T00:34:06;14.15;;;7.10;;
5841;SDS011;2947;52.276;9.946;2023-08-06T00:36:31;9.75;;;6.28;;
5841;SDS011;2947;52.276;9.946;2023-08-06T00:38:57;16.30;;;7.93;;
5841;SDS011;2947;52.276;9.946;2023-08-06T00:41:23;12.57;;;7.82;;
5841;SDS011;2947;52.276;9.946;2023-08-06T00:43:49;11.50;;;6.65;;
5841;SDS011;2947;52.276;9.946;2023-08-06T00:46:14;10.27;;;6.90;;
5841;SDS011;2947;52.276;9.946;2023-08-06T00:48:40;10.75;;;6.15;;
5841;SDS011;2947;52.276;9.946;2023-08-06T00:51:08;9.90;;;6.78;;
5841;SDS011;2947;52.276;9.946;2023-08-06T00:53:35;11.95;;;7.32;;
5841;SDS011;2947;52.276;9.946;2023-08-06T00:56:03;11.52;;;7.20;;
5841;SDS011;2947;52.276;9.946;2023-08-06T00:58:28;12.52;;;6.63;;
5841;SDS011;2947;52.276;9.946;2023-08-06T01:00:54;9.75;;;6.68;;
5841;SDS011;2947;52.276;9.946;2023-08-06T01:03:20;10.43;;;6.47;;
5841;SDS011;2947;52.276;9.946;2023-08-06T01:05:46;10.75;;;6.60;;
5841;SDS011;2947;52.276;9.946;2023-08-06T01:08:15;13.95;;;7.32;;
5841;SDS011;2947;52.276;9.946;2023-08-06T01:11:24;10.15;;;6.68;;
5841;SDS011;2947;52.276;9.946;2023-08-06T01:16:43;15.52;;;6.40;;
5841;SDS011;2947;52.276;9.946;2023-08-06T01:19:16;11.50;;;7.28;;
5841;SDS011;2947;52.276;9.946;2023-08-06T01:21:45;25.52;;;7.57;;
5841;SDS011;2947;52.276;9.946;2023-08-06T01:24:11;14.98;;;6.50;;
5841;SDS011;2947;52.276;9.946;2023-08-06T01:26:51;10.13;;;6.93;;
5841;SDS011;2947;52.276;9.946;2023-08-06T01:29:40;11.65;;;6.75;;
5841;SDS011;2947;52.276;9.946;2023-08-06T01:32:10;13.73;;;7.00;;
5841;SDS011;2947;52.276;9.946;2023-08-06T01:34:39;13.43;;;6.85;;
5841;SDS011;2947;52.276;9.946;2023-08-06T01:37:06;11.82;;;6.03;;
5841;SDS011;2947;52.276;9.946;2023-08-06T01:39:35;12.82;;;6.75;;
5841;SDS011;2947;52.276;9.946;2023-08-06T01:42:01;10.70;;;5.95;;
5841;SDS011;2947;52.276;9.946;2023-08-06T01:44:27;8.88;;;5.68;;
5841;SDS011;2947;52.276;9.946;2023-08-06T01:46:53;11.35;;;6.47;;
5841;SDS011;2947;52.276;9.946;2023-08-06T01:49:19;9.25;;;5.88;;
5841;SDS011;2947;52.276;9.946;2023-08-06T01:51:44;9.10;;;5.95;;
5841;SDS011;2947;52.276;9.946;2023-08-06T01:54:10;7.85;;;4.93;;
5841;SDS011;2947;52.276;9.946;2023-08-06T01:56:36;7.72;;;5.38;;
5841;SDS011;2947;52.276;9.946;2023-08-06T01:59:01;11.27;;;6.15;;
5841;SDS011;2947;52.276;9.946;2023-08-06T02:01:27;11.40;;;5.53;;
5841;SDS011;2947;52.276;9.946;2023-08-06T02:03:53;10.32;;;6.05;;
5841;SDS011;2947;52.276;9.946;2023-08-06T02:06:18;10.52;;;6.10;;
5841;SDS011;2947;52.276;9.946;2023-08-06T02:08:44;8.73;;;5.82;;
5841;SDS011;2947;52.276;9.946;2023-08-06T02:11:10;9.32;;;5.05;;
5841;SDS011;2947;52.276;9.946;2023-08-06T02:13:35;9.60;;;5.78;;
5841;SDS011;2947;52.276;9.946;2023-08-06T02:16:01;12.05;;;6.25;;
5841;SDS011;2947;52.276;9.946;2023-08-06T02:18:27;11.93;;;5.82;;
5841;SDS011;2947;52.276;9.946;2023-08-06T02:20:56;9.55;;;6.65;;
5841;SDS011;2947;52.276;9.946;2023-08-06T02:23:23;8.57;;;6.13;;
5841;SDS011;2947;52.276;9.946;2023-08-06T02:25:56;17.60;;;6.95;;
5841;SDS011;2947;52.276;9.946;2023-08-06T02:28:30;15.80;;;7.05;;
5841;SDS011;2947;52.276;9.946;2023-08-06T02:30:56;16.33;;;7.30;;
5841;SDS011;2947;52.276;9.946;2023-08-06T02:33:21;12.07;;;6.60;;
5841;SDS011;2947;52.276;9.946;2023-08-06T02:35:47;15.32;;;7.43;;
5841;SDS011;2947;52.276;9.946;2023-08-06T02:38:13;12.38;;;7.72;;
5841;SDS011;2947;52.276;9.946;2023-08-06T02:40:45;13.48;;;6.70;;
5841;SDS011;2947;52.276;9.946;2023-08-06T02:43:11;13.32;;;7.32;;
5841;SDS011;2947;52.276;9.946;2023-08-06T02:45:38;11.57;;;7.72;;
5841;SDS011;2947;52.276;9.946;2023-08-06T02:48:04;17.08;;;7.90;;
5841;SDS011;2947;52.276;9.946;2023-08-06T02:50:30;16.08;;;7.60;;
5841;SDS011;2947;52.276;9.946;2023-08-06T02:52:56;17.67;;;7.45;;
5841;SDS011;2947;52.276;9.946;2023-08-06T02:55:21;14.10;;;8.50;;
5841;SDS011;2947;52.276;9.946;2023-08-06T02:57:47;14.02;;;7.10;;
5841;SDS011;2947;52.276;9.946;2023-08-06T03:00:13;15.00;;;7.53;;
5841;SDS011;2947;52.276;9.946;2023-08-06T03:02:38;19.10;;;8.20;;
5841;SDS011;2947;52.276;9.946;2023-08-06T03:05:04;13.43;;;8.02;;
5841;SDS011;2947;52.276;9.946;2023-08-06T03:07:31;11.10;;;7.97;;
5841;SDS011;2947;52.276;9.946;2023-08-06T03:09:58;13.02;;;8.10;;
5841;SDS011;2947;52.276;9.946;2023-08-06T03:12:26;12.38;;;7.32;;
5841;SDS011;2947;52.276;9.946;2023-08-06T03:14:52;12.20;;;6.90;;
5841;SDS011;2947;52.276;9.946;2023-08-06T03:17:17;15.13;;;7.18;;
5841;SDS011;2947;52.276;9.946;2023-08-06T03:19:43;14.02;;;7.68;;
5841;SDS011;2947;52.276;9.946;2023-08-06T03:22:09;11.60;;;7.57;;
5841;SDS011;2947;52.276;9.946;2023-08-06T03:24:34;16.15;;;7.25;;
5841;SDS011;2947;52.276;9.946;2023-08-06T03:27:00;13.70;;;8.13;;
5841;SDS011;2947;52.276;9.946;2023-08-06T03:29:26;12.70;;;7.15;;
5841;SDS011;2947;52.276;9.946;2023-08-06T03:31:52;18.73;;;6.75;;
5841;SDS011;2947;52.276;9.946;2023-08-06T03:34:18;12.80;;;7.22;;
5841;SDS011;2947;52.276;9.946;2023-08-06T03:36:43;16.35;;;6.80;;
5841;SDS011;2947;52.276;9.946;2023-08-06T03:39:09;12.88;;;7.63;;
5841;SDS011;2947;52.276;9.946;2023-08-06T03:41:35;16.80;;;7.57;;
5841;SDS011;2947;52.276;9.946;2023-08-06T03:44:01;12.27;;;6.75;;
5841;SDS011;2947;52.276;9.946;2023-08-06T03:46:28;10.45;;;7.35;;
5841;SDS011;2947;52.276;9.946;2023-08-06T03:48:54;12.23;;;6.68;;
5841;SDS011;2947;52.276;9.946;2023-08-06T03:51:21;10.02;;;6.45;;
5841;SDS011;2947;52.276;9.946;2023-08-06T03:53:47;13.68;;;7.35;;
5841;SDS011;2947;52.276;9.946;2023-08-06T03:56:13;11.68;;;6.60;;
5841;SDS011;2947;52.276;9.946;2023-08-06T03:58:38;15.10;;;7.68;;
5841;SDS011;2947;52.276;9.946;2023-08-06T04:01:04;11.60;;;7.47;;
5841;SDS011;2947;52.276;9.946;2023-08-06T04:03:30;13.48;;;7.50;;
5841;SDS011;2947;52.276;9.946;2023-08-06T04:05:55;14.40;;;7.50;;
5841;SDS011;2947;52.276;9.946;2023-08-06T04:08:21;13.15;;;8.07;;
5841;SDS011;2947;52.276;9.946;2023-08-06T04:10:51;15.27;;;6.80;;
5841;SDS011;2947;52.276;9.946;2023-08-06T04:13:18;12.85;;;8.50;;
5841;SDS011;2947;52.276;9.946;2023-08-06T04:15:44;13.75;;;8.13;;
5841;SDS011;2947;52.276;9.946;2023-08-06T04:18:09;14.10;;;7.45;;
5841;SDS011;2947;52.276;9.946;2023-08-06T04:20:42;18.80;;;7.47;;
5841;SDS011;2947;52.276;9.946;2023-08-06T04:23:11;10.88;;;6.60;;
5841;SDS011;2947;52.276;9.946;2023-08-06T04:25:38;11.13;;;6.78;;
5841;SDS011;2947;52.276;9.946;2023-08-06T04:28:04;11.30;;;6.85;;
5841;SDS011;2947;52.276;9.946;2023-08-06T04:30:30;14.38;;;6.43;;
5841;SDS011;2947;52.276;9.946;2023-08-06T04:32:58;10.68;;;6.63;;
5841;SDS011;2947;52.276;9.946;2023-08-06T04:35:24;9.50;;;5.80;;
5841;SDS011;2947;52.276;9.946;2023-08-06T04:37:50;11.35;;;6.10;;
5841;SDS011;2947;52.276;9.946;2023-08-06T04:40:15;13.82;;;5.55;;
5841;SDS011;2947;52.276;9.946;2023-08-06T04:42:41;11.35;;;5.97;;
5841;SDS011;2947;52.276;9.946;2023-08-06T04:45:07;9.98;;;5.75;;
5841;SDS011;2947;52.276;9.946;2023-08-06T04:47:33;11.30;;;5.90;;
5841;SDS011;2947;52.276;9.946;2023-08-06T04:49:59;11.50;;;5.10;;
5841;SDS011;2947;52.276;9.946;2023-08-06T04:52:24;8.15;;;5.18;;
5841;SDS011;2947;52.276;9.946;2023-08-06T04:54:53;9.30;;;5.82;;
5841;SDS011;2947;52.276;9.946;2023-08-06T04:57:19;9.25;;;5.30;;
5841;SDS011;2947;52.276;9.946;2023-08-06T04:59:45;10.45;;;5.65;;
5841;SDS011;2947;52.276;9.946;2023-08-06T05:02:11;10.48;;;6.00;;
5841;SDS011;2947;52.276;9.946;2023-08-06T05:04:37;8.85;;;5.13;;
5841;SDS011;2947;52.276;9.946;2023-08-06T05:07:03;11.50;;;6.05;;
5841;SDS011;2947;52.276;9.946;2023-08-06T05:09:30;12.23;;;5.88;;
5841;SDS011;2947;52.276;9.946;2023-08-06T05:11:56;11.65;;;6.47;;
5841;SDS011;2947;52.276;9.946;2023-08-06T05:14:21;10.57;;;5.55;;
5841;SDS011;2947;52.276;9.946;2023-08-06T05:16:47;10.10;;;5.65;;
5841;SDS011;2947;52.276;9.946;2023-08-06T05:19:13;13.93;;;6.40;;
5841;SDS011;2947;52.276;9.946;2023-08-06T05:21:39;10.57;;;5.50;;
5841;SDS011;2947;52.276;9.946;2023-08-06T05:24:04;7.93;;;5.47;;
5841;SDS011;2947;52.276;9.946;2023-08-06T05:26:30;12.18;;;5.13;;
5841;SDS011;2947;52.276;9.946;2023-08-06T05:28:56;9.98;;;5.80;;
5841;SDS011;2947;52.276;9.946;2023-08-06T05:31:21;13.32;;;5.68;;
5841;SDS011;2947;52.276;9.946;2023-08-06T05:33:47;16.58;;;5.43;;
5841;SDS011;2947;52.276;9.946;2023-08-06T05:36:13;10.15;;;5.57;;
5841;SDS011;2947;52.276;9.946;2023-08-06T05:38:38;8.73;;;5.22;;
5841;SDS011;2947;52.276;9.946;2023-08-06T05:41:04;12.07;;;5.38;;
5841;SDS011;2947;52.276;9.946;2023-08-06T05:43:30;12.07;;;5.15;;
5841;SDS011;2947;52.276;9.946;2023-08-06T05:45:56;8.20;;;4.88;;
5841;SDS011;2947;52.276;9.946;2023-08-06T05:48:22;9.55;;;5.53;;
5841;SDS011;2947;52.276;9.946;2023-08-06T05:50:49;19.45;;;5.07;;
5841;SDS011;2947;52.276;9.946;2023-08-06T05:53:16;8.50;;;4.72;;
5841;SDS011;2947;52.276;9.946;2023-08-06T05:55:42;8.38;;;4.53;;
5841;SDS011;2947;52.276;9.946;2023-08-06T05:58:12;7.03;;;4.88;;
5841;SDS011;2947;52.276;9.946;2023-08-06T06:00:38;7.68;;;4.25;;
5841;SDS011;2947;52.276;9.946;2023-08-06T06:03:03;8.98;;;4.60;;
5841;SDS011;2947;52.276;9.946;2023-08-06T06:05:29;11.57;;;4.45;;
5841;SDS011;2947;52.276;9.946;2023-08-06T06:07:55;8.35;;;3.88;;
5841;SDS011;2947;52.276;9.946;2023-08-06T06:10:20;7.47;;;4.10;;
5841;SDS011;2947;52.276;9.946;2023-08-06T06:12:46;14.35;;;5.00;;
5841;SDS011;2947;52.276;9.946;2023-08-06T06:15:12;10.00;;;3.75;;
5841;SDS011;2947;52.276;9.946;2023-08-06T06:17:38;6.97;;;4.00;;
5841;SDS011;2947;52.276;9.946;2023-08-06T06:20:04;7.10;;;3.47;;
5841;SDS011;2947;52.276;9.946;2023-08-06T06:22:31;7.15;;;3.10;;
5841;SDS011;2947;52.276;9.946;2023-08-06T06:24:56;4.75;;;3.15;;
5841;SDS011;2947;52.276;9.946;2023-08-06T06:27:22;8.43;;;3.20;;
5841;SDS011;2947;52.276;9.946;2023-08-06T06:29:48;6.55;;;3.30;;
5841;SDS011;2947;52.276;9.946;2023-08-06T06:32:13;5.65;;;3.00;;
5841;SDS011;2947;52.276;9.946;2023-08-06T06:34:39;8.25;;;2.65;;
5841;SDS011;2947;52.276;9.946;2023-08-06T06:37:05;3.78;;;2.75;;
5841;SDS011;2947;52.276;9.946;2023-08-06T06:39:30;5.90;;;3.22;;
5841;SDS011;2947;52.276;9.946;2023-08-06T06:41:56;4.13;;;2.50;;
5841;SDS011;2947;52.276;9.946;2023-08-06T06:44:22;5.32;;;2.75;;
5841;SDS011;2947;52.276;9.946;2023-08-06T06:46:47;4.65;;;2.45;;
5841;SDS011;2947;52.276;9.946;2023-08-06T06:49:13;6.00;;;2.78;;
5841;SDS011;2947;52.276;9.946;2023-08-06T06:51:39;4.13;;;2.60;;
5841;SDS011;2947;52.276;9.946;2023-08-06T06:54:04;5.40;;;2.95;;
5841;SDS011;2947;52.276;9.946;2023-08-06T06:56:30;4.38;;;2.22;;
5841;SDS011;2947;52.276;9.946;2023-08-06T06:58:56;4.00;;;1.90;;
5841;SDS011;2947;52.276;9.946;2023-08-06T07:01:21;5.45;;;2.00;;
5841;SDS011;2947;52.276;9.946;2023-08-06T07:03:47;4.05;;;2.47;;
5841;SDS011;2947;52.276;9.946;2023-08-06T07:06:13;4.45;;;1.75;;
5841;SDS011;2947;52.276;9.946;2023-08-06T07:08:40;3.63;;;1.95;;
5841;SDS011;2947;52.276;9.946;2023-08-06T07:11:06;3.28;;;1.75;;
5841;SDS011;2947;52.276;9.946;2023-08-06T07:13:33;3.72;;;1.60;;
5841;SDS011;2947;52.276;9.946;2023-08-06T07:15:59;2.47;;;1.58;;
5841;SDS011;2947;52.276;9.946;2023-08-06T07:18:25;2.72;;;1.52;;
5841;SDS011;2947;52.276;9.946;2023-08-06T07:20:51;3.17;;;1.70;;
5841;SDS011;2947;52.276;9.946;2023-08-06T07:23:19;4.65;;;1.70;;
5841;SDS011;2947;52.276;9.946;2023-08-06T07:25:47;3.38;;;1.58;;
5841;SDS011;2947;52.276;9.946;2023-08-06T07:28:13;3.33;;;1.60;;
5841;SDS011;2947;52.276;9.946;2023-08-06T07:30:40;4.55;;;1.88;;
5841;SDS011;2947;52.276;9.946;2023-08-06T07:33:06;2.97;;;1.55;;
5841;SDS011;2947;52.276;9.946;2023-08-06T07:35:32;3.10;;;1.70;;
5841;SDS011;2947;52.276;9.946;2023-08-06T07:37:59;3.17;;;1.70;;
5841;SDS011;2947;52.276;9.946;2023-08-06T07:40:24;3.03;;;1.70;;
5841;SDS011;2947;52.276;9.946;2023-08-06T07:42:50;2.58;;;1.50;;
5841;SDS011;2947;52.276;9.946;2023-08-06T07:45:16;2.75;;;1.40;;
5841;SDS011;2947;52.276;9.946;2023-08-06T07:47:41;4.57;;;1.20;;
5841;SDS011;2947;52.276;9.946;2023-08-06T07:50:08;3.15;;;1.70;;
5841;SDS011;2947;52.276;9.946;2023-08-06T07:52:34;4.88;;;1.35;;
5841;SDS011;2947;52.276;9.946;2023-08-06T07:55:00;6.15;;;1.70;;
5841;SDS011;2947;52.276;9.946;2023-08-06T07:57:29;2.72;;;1.67;;
5841;SDS011;2947;52.276;9.946;2023-08-06T07:59:59;4.53;;;1.70;;
5841;SDS011;2947;52.276;9.946;2023-08-06T08:02:25;4.50;;;1.70;;
5841;SDS011;2947;52.276;9.946;2023-08-06T08:04:51;2.95;;;1.45;;
5841;SDS011;2947;52.276;9.946;2023-08-06T08:07:17;3.90;;;1.50;;
5841;SDS011;2947;52.276;9.946;2023-08-06T08:09:43;4.03;;;1.65;;
5841;SDS011;2947;52.276;9.946;2023-08-06T08:12:09;4.18;;;1.80;;
5841;SDS011;2947;52.276;9.946;2023-08-06T08:14:35;3.00;;;2.00;;
5841;SDS011;2947;52.276;9.946;2023-08-06T08:17:02;3.40;;;1.92;;
5841;SDS011;2947;52.276;9.946;2023-08-06T08:19:29;3.88;;;1.50;;
5841;SDS011;2947;52.276;9.946;2023-08-06T08:21:54;4.68;;;1.65;;
5841;SDS011;2947;52.276;9.946;2023-08-06T08:24:20;3.90;;;2.00;;
5841;SDS011;2947;52.276;9.946;2023-08-06T08:26:49;11.20;;;3.50;;
5841;SDS011;2947;52.276;9.946;2023-08-06T08:29:21;4.55;;;2.10;;
5841;SDS011;2947;52.276;9.946;2023-08-06T08:31:47;4.20;;;1.80;;
5841;SDS011;2947;52.276;9.946;2023-08-06T08:34:18;2.58;;;1.60;;
5841;SDS011;2947;52.276;9.946;2023-08-06T08:36:44;3.35;;;1.63;;
5841;SDS011;2947;52.276;9.946;2023-08-06T08:39:12;3.20;;;1.67;;
5841;SDS011;2947;52.276;9.946;2023-08-06T08:41:39;3.10;;;1.80;;
5841;SDS011;2947;52.276;9.946;2023-08-06T08:44:05;3.47;;;1.70;;
5841;SDS011;2947;52.276;9.946;2023-08-06T08:46:35;5.10;;;1.90;;
5841;SDS011;2947;52.276;9.946;2023-08-06T08:49:03;4.63;;;1.60;;
5841;SDS011;2947;52.276;9.946;2023-08-06T08:51:29;5.38;;;1.52;;
5841;SDS011;2947;52.276;9.946;2023-08-06T08:53:56;4.10;;;1.70;;
5841;SDS011;2947;52.276;9.946;2023-08-06T08:56:22;2.90;;;1.67;;
5841;SDS011;2947;52.276;9.946;2023-08-06T08:58:49;3.03;;;1.70;;
5841;SDS011;2947;52.276;9.946;2023-08-06T09:01:16;2.90;;;1.40;;
5841;SDS011;2947;52.276;9.946;2023-08-06T09:03:45;3.90;;;2.00;;
5841;SDS011;2947;52.276;9.946;2023-08-06T09:06:11;3.78;;;1.85;;
5841;SDS011;2947;52.276;9.946;2023-08-06T09:08:43;2.80;;;1.80;;
5841;SDS011;2947;52.276;9.946;2023-08-06T09:11:17;3.05;;;1.70;;
5841;SDS011;2947;52.276;9.946;2023-08-06T09:13:45;3.60;;;1.38;;
5841;SDS011;2947;52.276;9.946;2023-08-06T09:16:12;7.47;;;2.20;;
5841;SDS011;2947;52.276;9.946;2023-08-06T09:18:38;2.75;;;1.50;;
5841;SDS011;2947;52.276;9.946;2023-08-06T09:21:05;2.75;;;1.65;;
5841;SDS011;2947;52.276;9.946;2023-08-06T09:23:30;2.75;;;1.33;;
5841;SDS011;2947;52.276;9.946;2023-08-06T09:25:58;5.88;;;1.60;;
5841;SDS011;2947;52.276;9.946;2023-08-06T09:28:24;8.35;;;1.80;;
5841;SDS011;2947;52.276;9.946;2023-08-06T09:31:02;4.30;;;2.17;;
5841;SDS011;2947;52.276;9.946;2023-08-06T09:33:29;4.47;;;1.83;;
5841;SDS011;2947;52.276;9.946;2023-08-06T09:35:54;3.00;;;1.80;;
5841;SDS011;2947;52.276;9.946;2023-08-06T09:38:20;4.30;;;1.48;;
5841;SDS011;2947;52.276;9.946;2023-08-06T09:40:46;3.30;;;1.90;;
5841;SDS011;2947;52.276;9.946;2023-08-06T09:43:12;3.25;;;2.00;;
5841;SDS011;2947;52.276;9.946;2023-08-06T09:45:38;3.35;;;1.85;;
5841;SDS011;2947;52.276;9.946;2023-08-06T09:48:05;3.88;;;1.70;;
5841;SDS011;2947;52.276;9.946;2023-08-06T09:50:34;3.67;;;2.13;;
5841;SDS011;2947;52.276;9.946;2023-08-06T09:53:02;2.70;;;1.50;;
5841;SDS011;2947;52.276;9.946;2023-08-06T09:55:35;5.07;;;1.52;;
5841;SDS011;2947;52.276;9.946;2023-08-06T09:58:01;3.00;;;1.52;;
5841;SDS011;2947;52.276;9.946;2023-08-06T10:00:27;4.45;;;1.92;;
5841;SDS011;2947;52.276;9.946;2023-08-06T10:02:55;4.45;;;1.88;;
5841;SDS011;2947;52.276;9.946;2023-08-06T10:05:25;4.10;;;1.67;;
5841;SDS011;2947;52.276;9.946;2023-08-06T10:07:52;3.78;;;1.85;;
5841;SDS011;2947;52.276;9.946;2023-08-06T10:10:19;3.65;;;1.80;;
5841;SDS011;2947;52.276;9.946;2023-08-06T10:12:46;5.40;;;1.92;;
5841;SDS011;2947;52.276;9.946;2023-08-06T10:15:19;8.77;;;1.95;;
5841;SDS011;2947;52.276;9.946;2023-08-06T10:17:51;3.25;;;1.42;;
5841;SDS011;2947;52.276;9.946;2023-08-06T10:20:22;4.90;;;1.70;;
5841;SDS011;2947;52.276;9.946;2023-08-06T10:23:06;3.25;;;1.55;;
5841;SDS011;2947;52.276;9.946;2023-08-06T10:25:33;5.18;;;1.60;;
5841;SDS011;2947;52.276;9.946;2023-08-06T10:28:01;3.95;;;1.50;;
5841;SDS011;2947;52.276;9.946;2023-08-06T10:30:43;3.58;;;1.80;;
5841;SDS011;2947;52.276;9.946;2023-08-06T10:33:11;4.85;;;1.70;;
5841;SDS011;2947;52.276;9.946;2023-08-06T10:35:41;3.35;;;1.88;;
5841;SDS011;2947;52.276;9.946;2023-08-06T10:38:09;3.40;;;1.38;;
5841;SDS011;2947;52.276;9.946;2023-08-06T10:45:57;12.50;;;1.38;;
5841;SDS011;2947;52.276;9.946;2023-08-06T10:48:31;3.20;;;1.30;;
5841;SDS011;2947;52.276;9.946;2023-08-06T10:51:04;3.05;;;1.65;;
5841;SDS011;2947;52.276;9.946;2023-08-06T10:53:34;3.10;;;1.60;;
5841;SDS011;2947;52.276;9.946;2023-08-06T10:56:00;4.63;;;2.35;;
5841;SDS011;2947;52.276;9.946;2023-08-06T10:58:33;3.63;;;1.75;;
5841;SDS011;2947;52.276;9.946;2023-08-06T11:00:59;3.58;;;1.88;;
5841;SDS011;2947;52.276;9.946;2023-08-06T11:03:26;4.60;;;1.75;;
5841;SDS011;2947;52.276;9.946;2023-08-06T11:05:53;10.52;;;6.43;;
5841;SDS011;2947;52.276;9.946;2023-08-06T11:08:28;3.10;;;1.20;;
5841;SDS011;2947;52.276;9.946;2023-08-06T11:11:07;4.53;;;2.10;;
5841;SDS011;2947;52.276;9.946;2023-08-06T11:13:38;4.88;;;1.73;;
5841;SDS011;2947;52.276;9.946;2023-08-06T11:16:05;4.20;;;1.80;;
5841;SDS011;2947;52.276;9.946;2023-08-06T11:18:31;3.38;;;1.70;;
5841;SDS011;2947;52.276;9.946;2023-08-06T11:20:58;3.72;;;2.00;;
5841;SDS011;2947;52.276;9.946;2023-08-06T11:23:26;2.80;;;1.20;;
5841;SDS011;2947;52.276;9.946;2023-08-06T11:25:58;3.63;;;1.42;;
5841;SDS011;2947;52.276;9.946;2023-08-06T11:28:24;5.40;;;1.45;;
5841;SDS011;2947;52.276;9.946;2023-08-06T11:30:50;4.25;;;1.40;;
5841;SDS011;2947;52.276;9.946;2023-08-06T11:33:23;4.22;;;1.60;;
5841;SDS011;2947;52.276;9.946;2023-08-06T11:35:57;3.85;;;1.83;;
5841;SDS011;2947;52.276;9.946;2023-08-06T11:38:25;2.78;;;1.42;;
5841;SDS011;2947;52.276;9.946;2023-08-06T11:40:52;4.90;;;1.30;;
5841;SDS011;2947;52.276;9.946;2023-08-06T11:43:18;3.03;;;1.45;;
5841;SDS011;2947;52.276;9.946;2023-08-06T11:45:47;3.53;;;1.42;;
5841;SDS011;2947;52.276;9.946;2023-08-06T11:48:18;3.90;;;1.50;;
5841;SDS011;2947;52.276;9.946;2023-08-06T11:50:44;3.08;;;1.40;;
5841;SDS011;2947;52.276;9.946;2023-08-06T11:53:11;4.05;;;1.30;;
5841;SDS011;2947;52.276;9.946;2023-08-06T11:55:39;4.50;;;1.55;;
5841;SDS011;2947;52.276;9.946;2023-08-06T11:58:05;4.40;;;1.48;;
5841;SDS011;2947;52.276;9.946;2023-08-06T12:00:31;3.30;;;1.90;;
5841;SDS011;2947;52.276;9.946;2023-08-06T12:02:57;3.65;;;1.67;;
5841;SDS011;2947;52.276;9.946;2023-08-06T12:05:28;4.75;;;1.60;;
5841;SDS011;2947;52.276;9.946;2023-08-06T12:07:59;5.40;;;1.73;;
5841;SDS011;2947;52.276;9.946;2023-08-06T12:10:30;3.67;;;2.08;;
5841;SDS011;2947;52.276;9.946;2023-08-06T12:12:57;3.63;;;1.85;;
5841;SDS011;2947;52.276;9.946;2023-08-06T12:15:22;3.58;;;1.65;;
5841;SDS011;2947;52.276;9.946;2023-08-06T12:17:49;5.50;;;1.80;;
5841;SDS011;2947;52.276;9.946;2023-08-06T12:20:14;3.10;;;1.30;;
5841;SDS011;2947;52.276;9.946;2023-08-06T12:22:40;3.47;;;1.80;;
5841;SDS011;2947;52.276;9.946;2023-08-06T12:25:10;3.53;;;1.52;;
5841;SDS011;2947;52.276;9.946;2023-08-06T12:27:38;3.72;;;1.63;;
5841;SDS011;2947;52.276;9.946;2023-08-06T12:30:06;4.07;;;1.90;;
5841;SDS011;2947;52.276;9.946;2023-08-06T12:32:33;3.72;;;2.03;;
5841;SDS011;2947;52.276;9.946;2023-08-06T12:34:59;3.85;;;1.88;;
5841;SDS011;2947;52.276;9.946;2023-08-06T12:37:25;4.55;;;2.13;;
5841;SDS011;2947;52.276;9.946;2023-08-06T12:39:52;6.95;;;2.25;;
5841;SDS011;2947;52.276;9.946;2023-08-06T12:42:17;4.35;;;2.08;;
5841;SDS011;2947;52.276;9.946;2023-08-06T12:44:43;3.10;;;1.73;;
5841;SDS011;2947;52.276;9.946;2023-08-06T12:47:09;4.68;;;2.28;;
5841;SDS011;2947;52.276;9.946;2023-08-06T12:49:35;5.97;;;2.25;;
5841;SDS011;2947;52.276;9.946;2023-08-06T12:52:01;3.33;;;1.70;;
5841;SDS011;2947;52.276;9.946;2023-08-06T12:54:27;4.22;;;2.28;;
5841;SDS011;2947;52.276;9.946;2023-08-06T12:56:53;4.45;;;2.30;;
5841;SDS011;2947;52.276;9.946;2023-08-06T12:59:19;4.43;;;2.15;;
5841;SDS011;2947;52.276;9.946;2023-08-06T13:01:45;4.07;;;1.80;;
5841;SDS011;2947;52.276;9.946;2023-08-06T13:04:13;3.60;;;1.80;;
5841;SDS011;2947;52.276;9.946;2023-08-06T13:06:39;3.75;;;2.25;;
5841;SDS011;2947;52.276;9.946;2023-08-06T13:09:08;4.13;;;1.90;;
5841;SDS011;2947;52.276;9.946;2023-08-06T13:11:35;3.70;;;2.33;;
5841;SDS011;2947;52.276;9.946;2023-08-06T13:14:12;5.82;;;2.38;;
5841;SDS011;2947;52.276;9.946;2023-08-06T13:16:41;3.85;;;2.55;;
5841;SDS011;2947;52.276;9.946;2023-08-06T13:19:08;4.78;;;2.20;;
5841;SDS011;2947;52.276;9.946;2023-08-06T13:24:02;3.85;;;1.98;;
5841;SDS011;2947;52.276;9.946;2023-08-06T13:26:29;4.10;;;2.22;;
5841;SDS011;2947;52.276;9.946;2023-08-06T13:28:56;6.18;;;2.58;;
5841;SDS011;2947;52.276;9.946;2023-08-06T13:31:22;7.60;;;2.47;;
5841;SDS011;2947;52.276;9.946;2023-08-06T13:33:48;4.82;;;1.98;;
5841;SDS011;2947;52.276;9.946;2023-08-06T13:36:15;7.90;;;2.38;;
5841;SDS011;2947;52.276;9.946;2023-08-06T13:38:41;3.83;;;1.85;;
5841;SDS011;2947;52.276;9.946;2023-08-06T13:41:07;5.00;;;2.00;;
5841;SDS011;2947;52.276;9.946;2023-08-06T13:43:33;4.03;;;2.58;;
5841;SDS011;2947;52.276;9.946;2023-08-06T13:45:59;4.38;;;2.00;;
5841;SDS011;2947;52.276;9.946;2023-08-06T13:48:25;3.22;;;1.88;;
5841;SDS011;2947;52.276;9.946;2023-08-06T13:50:50;3.67;;;2.20;;
5841;SDS011;2947;52.276;9.946;2023-08-06T13:53:16;4.25;;;2.25;;
5841;SDS011;2947;52.276;9.946;2023-08-06T13:55:42;3.88;;;2.15;;
5841;SDS011;2947;52.276;9.946;2023-08-06T13:58:07;3.40;;;2.00;;
5841;SDS011;2947;52.276;9.946;2023-08-06T14:00:33;4.35;;;2.10;;
5841;SDS011;2947;52.276;9.946;2023-08-06T14:03:01;3.72;;;1.92;;
5841;SDS011;2947;52.276;9.946;2023-08-06T14:05:26;3.50;;;1.85;;
5841;SDS011;2947;52.276;9.946;2023-08-06T14:07:52;3.80;;;2.00;;
5841;SDS011;2947;52.276;9.946;2023-08-06T14:10:18;3.95;;;2.10;;
5841;SDS011;2947;52.276;9.946;2023-08-06T14:12:43;6.07;;;2.42;;
5841;SDS011;2947;52.276;9.946;2023-08-06T14:15:10;4.95;;;2.05;;
5841;SDS011;2947;52.276;9.946;2023-08-06T14:17:36;4.13;;;2.15;;
5841;SDS011;2947;52.276;9.946;2023-08-06T14:20:02;3.58;;;1.90;;
5841;SDS011;2947;52.276;9.946;2023-08-06T14:22:30;3.55;;;1.90;;
5841;SDS011;2947;52.276;9.946;2023-08-06T14:24:57;4.22;;;2.10;;
5841;SDS011;2947;52.276;9.946;2023-08-06T14:27:23;3.53;;;1.90;;
5841;SDS011;2947;52.276;9.946;2023-08-06T14:29:49;4.35;;;2.10;;
5841;SDS011;2947;52.276;9.946;2023-08-06T14:32:15;4.57;;;2.05;;
5841;SDS011;2947;52.276;9.946;2023-08-06T14:34:43;6.88;;;2.30;;
5841;SDS011;2947;52.276;9.946;2023-08-06T14:37:09;4.55;;;2.05;;
5841;SDS011;2947;52.276;9.946;2023-08-06T14:39:36;3.20;;;2.00;;
5841;SDS011;2947;52.276;9.946;2023-08-06T14:42:01;4.50;;;2.28;;
5841;SDS011;2947;52.276;9.946;2023-08-06T14:44:29;3.50;;;2.17;;
5841;SDS011;2947;52.276;9.946;2023-08-06T14:46:55;4.30;;;2.40;;
5841;SDS011;2947;52.276;9.946;2023-08-06T14:49:20;4.20;;;2.03;;
5841;SDS011;2947;52.276;9.946;2023-08-06T14:51:46;4.65;;;2.25;;
5841;SDS011;2947;52.276;9.946;2023-08-06T14:54:12;4.28;;;2.15;;
5841;SDS011;2947;52.276;9.946;2023-08-06T14:56:37;4.30;;;2.20;;
5841;SDS011;2947;52.276;9.946;2023-08-06T14:59:03;3.95;;;1.90;;
5841;SDS011;2947;52.276;9.946;2023-08-06T15:01:29;4.28;;;1.83;;
5841;SDS011;2947;52.276;9.946;2023-08-06T15:03:54;3.13;;;1.70;;
5841;SDS011;2947;52.276;9.946;2023-08-06T15:06:20;3.25;;;1.70;;
5841;SDS011;2947;52.276;9.946;2023-08-06T15:08:46;3.63;;;1.63;;
5841;SDS011;2947;52.276;9.946;2023-08-06T15:11:13;2.63;;;1.23;;
5841;SDS011;2947;52.276;9.946;2023-08-06T15:13:39;4.20;;;1.67;;
5841;SDS011;2947;52.276;9.946;2023-08-06T15:16:05;3.72;;;1.42;;
5841;SDS011;2947;52.276;9.946;2023-08-06T15:18:31;3.15;;;1.52;;